Time;durP1;ratioP1;P1;durP2;ratioP2;P2;SDS_P1;SDS_P2;PMS_P1;PMS_P2;Temp;Humidity;BMP_temperature;BMP_pressure;BME280_temperature;BME280_humidity;BME280_pressure;Samples;Min_cycle;Max_cycle;Signal;HPM_P1;HPM_P2
2023/12/07 00:01:00;;;;;;;65.30;31.60;;;0.60;1.00;;;;;;5019186;28;20236;-71
2023/12/07 00:03:29;;;;;;;68.37;30.47;;;0.70;1.00;;;;;;5022886;28;20219;-71
2023/12/07 00:05:59;;;;;;;67.07;30.70;;;0.60;1.00;;;;;;5020247;28;20230;-71
2023/12/07 00:08:27;;;;;;;65.00;29.67;;;0.60;1.00;;;;;;5027060;28;20234;-71
2023/12/07 00:10:55;;;;;;;67.87;30.50;;;0.60;1.00;;;;;;5053216;28;20317;-71
2023/12/07 00:13:24;;;;;;;68.30;30.67;;;0.90;1.00;;;;;;5036837;28;20235;-72
2023/12/07 00:15:53;;;;;;;63.77;30.17;;;1.00;1.00;;;;;;5022869;28;20245;-72
2023/12/07 00:18:22;;;;;;;64.17;30.10;;;0.80;1.00;;;;;;5021201;28;20227;-72
2023/12/07 00:20:50;;;;;;;63.27;29.47;;;0.80;1.00;;;;;;5023422;28;20233;-71
2023/12/07 00:23:20;;;;;;;66.33;30.97;;;0.90;1.00;;;;;;5021711;28;20230;-72
2023/12/07 00:25:49;;;;;;;63.87;29.10;;;0.90;1.00;;;;;;5018930;28;20313;-71
2023/12/07 00:28:17;;;;;;;73.67;30.77;;;0.80;1.00;;;;;;5032799;28;20301;-67
2023/12/07 00:30:45;;;;;;;65.30;30.47;;;0.60;1.00;;;;;;5020913;28;20223;-71
2023/12/07 00:33:14;;;;;;;67.40;30.10;;;0.70;1.00;;;;;;5021655;28;20319;-71
2023/12/07 00:35:42;;;;;;;68.10;30.73;;;0.90;1.00;;;;;;5025133;28;20224;-70
2023/12/07 00:38:11;;;;;;;65.87;29.20;;;0.80;1.00;;;;;;5026239;28;20707;-69
2023/12/07 00:40:42;;;;;;;72.33;29.83;;;0.70;1.00;;;;;;5024456;28;20239;-71
2023/12/07 00:43:10;;;;;;;68.77;29.50;;;0.70;1.00;;;;;;5020448;28;20246;-69
2023/12/07 00:45:39;;;;;;;69.20;30.73;;;0.60;1.00;;;;;;5021827;28;20330;-69
2023/12/07 00:48:07;;;;;;;64.63;29.33;;;0.80;1.00;;;;;;5017221;28;20232;-70
2023/12/07 00:50:36;;;;;;;70.03;30.57;;;1.00;1.00;;;;;;5021738;28;20258;-71
2023/12/07 00:53:06;;;;;;;69.27;29.47;;;1.10;1.00;;;;;;5024017;28;20913;-70
2023/12/07 00:55:34;;;;;;;68.13;29.77;;;0.90;1.00;;;;;;5023257;28;20235;-70
2023/12/07 00:58:05;;;;;;;67.23;30.20;;;0.90;1.00;;;;;;5023060;28;20228;-70
2023/12/07 01:00:33;;;;;;;71.87;29.60;;;0.90;1.00;;;;;;5018796;28;20697;-71
2023/12/07 01:03:02;;;;;;;71.90;30.03;;;1.10;1.00;;;;;;5019208;28;20221;-71
2023/12/07 01:05:30;;;;;;;70.40;29.73;;;1.00;1.00;;;;;;5016533;28;20244;-71
2023/12/07 01:07:59;;;;;;;69.90;29.10;;;1.00;1.00;;;;;;5025434;28;21019;-70
2023/12/07 01:10:28;;;;;;;67.20;29.20;;;0.80;1.00;;;;;;5025866;28;20220;-71
2023/12/07 01:12:56;;;;;;;74.27;30.60;;;0.90;1.00;;;;;;5021262;28;20229;-71
2023/12/07 01:15:27;;;;;;;73.63;29.80;;;0.90;1.00;;;;;;5023652;28;20284;-72
2023/12/07 01:17:55;;;;;;;72.60;29.23;;;1.00;1.00;;;;;;5015622;28;20228;-70
2023/12/07 01:20:24;;;;;;;68.97;29.77;;;1.10;1.00;;;;;;5020298;28;20228;-71
2023/12/07 01:22:52;;;;;;;73.90;29.93;;;1.00;1.00;;;;;;5019804;28;20589;-69
2023/12/07 01:25:21;;;;;;;83.30;31.23;;;1.10;1.00;;;;;;5025904;28;20245;-70
2023/12/07 01:27:51;;;;;;;75.97;29.87;;;1.10;1.00;;;;;;5018256;28;20231;-72
2023/12/07 01:30:19;;;;;;;77.60;29.50;;;1.10;1.00;;;;;;5027809;28;20876;-70
2023/12/07 01:32:49;;;;;;;79.97;29.57;;;1.00;1.00;;;;;;5015575;28;20236;-72
2023/12/07 01:35:18;;;;;;;82.73;31.07;;;0.90;1.00;;;;;;5042879;28;20227;-72
2023/12/07 01:37:47;;;;;;;79.30;30.70;;;1.10;1.00;;;;;;5022639;28;20346;-70
2023/12/07 01:40:17;;;;;;;81.57;29.47;;;1.20;1.00;;;;;;5022423;28;20259;-71
2023/12/07 01:42:51;;;;;;;76.93;30.60;;;1.10;1.00;;;;;;5021515;28;20232;-70
2023/12/07 01:45:20;;;;;;;72.47;28.63;;;1.20;1.00;;;;;;5022948;28;20785;-68
2023/12/07 01:47:53;;;;;;;76.47;29.53;;;1.20;1.00;;;;;;5020497;28;20242;-71
2023/12/07 01:50:23;;;;;;;84.83;31.27;;;1.10;1.00;;;;;;5019208;28;20646;-70
2023/12/07 01:52:57;;;;;;;84.27;30.53;;;1.10;1.00;;;;;;5019089;28;20245;-70
2023/12/07 01:55:27;;;;;;;84.73;30.37;;;1.00;1.00;;;;;;5021444;28;20233;-71
2023/12/07 01:57:56;;;;;;;87.80;30.80;;;1.20;1.00;;;;;;5019134;28;20331;-70
2023/12/07 02:00:25;;;;;;;81.70;29.90;;;0.90;1.00;;;;;;5029145;28;20267;-70
2023/12/07 02:02:56;;;;;;;87.30;32.20;;;1.10;1.00;;;;;;5018368;28;20333;-70
2023/12/07 02:05:26;;;;;;;81.33;31.40;;;1.20;1.00;;;;;;5025019;28;20235;-74
2023/12/07 02:07:55;;;;;;;77.97;30.50;;;1.20;1.00;;;;;;5023808;28;20221;-70
2023/12/07 02:10:24;;;;;;;81.80;29.70;;;1.10;1.00;;;;;;5025724;28;20950;-69
2023/12/07 02:12:54;;;;;;;75.33;28.63;;;1.00;1.00;;;;;;5044025;28;20253;-70
2023/12/07 02:15:22;;;;;;;83.73;30.13;;;1.10;1.00;;;;;;5023679;28;20227;-70
2023/12/07 02:17:58;;;;;;;82.17;28.87;;;1.20;1.00;;;;;;5021191;28;20314;-69
2023/12/07 02:20:31;;;;;;;90.90;30.40;;;1.00;1.00;;;;;;5027680;28;20244;-71
2023/12/07 02:23:02;;;;;;;83.00;29.43;;;0.90;1.00;;;;;;5019571;28;20239;-69
2023/12/07 02:25:41;;;;;;;79.93;28.93;;;0.80;1.00;;;;;;5025300;28;20236;-69
2023/12/07 02:28:11;;;;;;;85.13;30.17;;;0.80;1.00;;;;;;5027292;28;20484;-70
2023/12/07 02:30:39;;;;;;;88.13;30.87;;;1.00;1.00;;;;;;5027113;28;20246;-72
2023/12/07 02:33:08;;;;;;;72.00;27.90;;;1.00;1.00;;;;;;5022215;28;20220;-71
2023/12/07 02:35:38;;;;;;;84.67;30.27;;;1.10;1.00;;;;;;5025395;28;20236;-71
2023/12/07 02:38:07;;;;;;;84.07;28.07;;;1.10;1.00;;;;;;5027325;28;20288;-70
2023/12/07 02:40:36;;;;;;;86.73;29.07;;;1.10;1.00;;;;;;5030828;28;20230;-70
2023/12/07 02:43:06;;;;;;;76.53;29.87;;;1.00;1.00;;;;;;5021098;28;20704;-71
2023/12/07 02:45:36;;;;;;;84.73;28.17;;;1.10;1.00;;;;;;5023609;28;20236;-70
2023/12/07 02:48:04;;;;;;;78.73;27.70;;;1.20;1.00;;;;;;5022700;28;20723;-70
2023/12/07 02:50:33;;;;;;;80.43;29.20;;;1.30;1.00;;;;;;5023675;28;20334;-70
2023/12/07 02:53:02;;;;;;;74.93;28.07;;;1.30;1.00;;;;;;5020641;28;20311;-70
2023/12/07 02:55:30;;;;;;;71.43;27.43;;;1.50;1.00;;;;;;5020014;28;20273;-72
2023/12/07 02:57:59;;;;;;;73.67;27.60;;;1.50;1.00;;;;;;5022534;28;20313;-71
2023/12/07 03:00:28;;;;;;;72.80;27.27;;;1.60;1.00;;;;;;5019725;28;20232;-71
2023/12/07 03:02:57;;;;;;;76.97;28.80;;;1.50;1.00;;;;;;5020336;28;20239;-72
2023/12/07 03:05:26;;;;;;;70.07;26.73;;;1.30;1.00;;;;;;5020797;28;20229;-70
2023/12/07 03:07:54;;;;;;;73.23;27.70;;;1.10;1.00;;;;;;5021593;28;20266;-70
2023/12/07 03:10:23;;;;;;;70.87;27.03;;;1.20;1.00;;;;;;5023851;28;20279;-69
2023/12/07 03:12:51;;;;;;;73.43;26.13;;;1.20;1.00;;;;;;5021846;28;20311;-70
2023/12/07 03:15:19;;;;;;;68.93;26.83;;;1.30;1.00;;;;;;5051895;28;20232;-71
2023/12/07 03:17:49;;;;;;;72.67;27.07;;;1.30;1.00;;;;;;5016908;28;20608;-69
2023/12/07 03:20:19;;;;;;;70.60;25.93;;;1.30;1.00;;;;;;5020984;28;20230;-69
2023/12/07 03:22:48;;;;;;;68.97;25.63;;;1.20;1.00;;;;;;5017466;28;20748;-69
2023/12/07 03:25:17;;;;;;;70.20;26.57;;;1.10;1.00;;;;;;5013348;28;20557;-70
2023/12/07 03:27:45;;;;;;;65.97;26.57;;;1.00;1.00;;;;;;5016534;28;20232;-69
2023/12/07 03:30:14;;;;;;;75.50;26.60;;;1.10;1.00;;;;;;5021080;28;20301;-70
2023/12/07 03:32:42;;;;;;;61.13;24.97;;;1.10;1.00;;;;;;5024004;28;20244;-72
2023/12/07 03:35:11;;;;;;;62.93;25.33;;;1.10;1.00;;;;;;5038788;28;20310;-71
2023/12/07 03:37:41;;;;;;;61.87;26.07;;;1.10;1.00;;;;;;5020273;28;20227;-71
2023/12/07 03:40:10;;;;;;;60.07;24.17;;;1.20;1.00;;;;;;5022022;28;20243;-73
2023/12/07 03:42:39;;;;;;;62.10;25.60;;;1.30;1.00;;;;;;5004483;28;20245;-73
2023/12/07 03:45:23;;;;;;;64.53;24.70;;;1.30;1.00;;;;;;5023674;28;20231;-72
2023/12/07 03:47:52;;;;;;;59.33;24.13;;;1.20;1.00;;;;;;5021194;28;20223;-70
2023/12/07 03:50:20;;;;;;;65.10;24.27;;;1.20;1.00;;;;;;5026541;28;20220;-72
2023/12/07 03:52:51;;;;;;;67.80;25.33;;;1.10;1.00;;;;;;5006770;28;20278;-70
2023/12/07 03:55:19;;;;;;;59.87;23.97;;;1.20;1.00;;;;;;5021717;28;20227;-70
2023/12/07 03:57:48;;;;;;;61.03;24.83;;;1.00;1.00;;;;;;5031689;28;20238;-70
2023/12/07 04:00:17;;;;;;;60.97;25.83;;;1.10;1.00;;;;;;5017753;28;20245;-69
2023/12/07 04:02:45;;;;;;;66.77;28.07;;;1.00;1.00;;;;;;5019158;28;20233;-70
2023/12/07 04:05:15;;;;;;;60.47;26.23;;;1.10;1.00;;;;;;5019713;28;20268;-70
2023/12/07 04:07:43;;;;;;;64.80;27.07;;;1.10;1.00;;;;;;5022299;28;20374;-71
2023/12/07 04:10:14;;;;;;;59.10;26.17;;;0.90;1.00;;;;;;5017571;28;20298;-71
2023/12/07 04:12:42;;;;;;;63.57;26.93;;;1.10;1.00;;;;;;5032476;28;20223;-71
2023/12/07 04:15:11;;;;;;;57.50;24.70;;;1.10;1.00;;;;;;5018944;28;20726;-70
2023/12/07 04:17:43;;;;;;;67.40;26.93;;;1.00;1.00;;;;;;5013883;28;20220;-69
2023/12/07 04:20:12;;;;;;;57.57;23.63;;;1.20;1.00;;;;;;5023098;28;20228;-68
2023/12/07 04:22:41;;;;;;;59.37;24.83;;;1.10;1.00;;;;;;5020064;28;20284;-69
2023/12/07 04:25:10;;;;;;;62.20;25.53;;;1.10;1.00;;;;;;5027378;28;20346;-69
2023/12/07 04:27:40;;;;;;;61.40;24.93;;;1.20;1.00;;;;;;5017698;28;20229;-69
2023/12/07 04:30:09;;;;;;;56.20;24.60;;;1.10;1.00;;;;;;5019344;28;20231;-72
2023/12/07 04:32:39;;;;;;;61.70;25.37;;;1.00;1.00;;;;;;5020372;28;20224;-71
2023/12/07 04:35:08;;;;;;;58.27;24.83;;;1.00;1.00;;;;;;5029323;28;20232;-71
2023/12/07 04:37:37;;;;;;;58.67;24.03;;;1.00;1.00;;;;;;5022035;28;20254;-71
2023/12/07 04:40:07;;;;;;;57.50;24.53;;;1.10;1.00;;;;;;5023966;28;20282;-71
2023/12/07 04:42:36;;;;;;;60.63;24.90;;;1.10;1.00;;;;;;5017359;28;20670;-72
2023/12/07 04:45:06;;;;;;;61.10;25.67;;;1.10;1.00;;;;;;5021021;28;20233;-70
2023/12/07 04:47:35;;;;;;;64.73;25.27;;;1.20;1.00;;;;;;5017187;28;20229;-71
2023/12/07 04:50:04;;;;;;;64.27;24.73;;;1.30;1.00;;;;;;5020914;28;20240;-69
2023/12/07 04:52:32;;;;;;;56.90;24.70;;;1.20;1.00;;;;;;5020346;28;20224;-71
2023/12/07 04:55:06;;;;;;;58.73;24.27;;;1.10;1.00;;;;;;5018845;28;20310;-71
2023/12/07 04:57:34;;;;;;;58.20;23.00;;;0.90;1.00;;;;;;5037378;28;20220;-72
2023/12/07 05:00:09;;;;;;;54.27;23.20;;;0.90;1.00;;;;;;5015432;28;20282;-71
2023/12/07 05:02:38;;;;;;;58.97;22.97;;;1.10;1.00;;;;;;5019007;28;20260;-73
2023/12/07 05:05:07;;;;;;;59.50;23.83;;;1.00;1.00;;;;;;5023141;28;20227;-71
2023/12/07 05:07:35;;;;;;;53.27;23.00;;;1.10;1.00;;;;;;5021094;28;20315;-71
2023/12/07 05:10:06;;;;;;;61.30;23.57;;;1.10;1.00;;;;;;5023464;28;21107;-70
2023/12/07 05:12:35;;;;;;;57.80;24.93;;;1.00;1.00;;;;;;5035653;28;20227;-70
2023/12/07 05:15:07;;;;;;;53.80;24.40;;;1.00;1.00;;;;;;5028422;28;20799;-71
2023/12/07 05:17:35;;;;;;;57.30;24.10;;;1.10;1.00;;;;;;5014386;28;20232;-72
2023/12/07 05:20:06;;;;;;;50.60;23.23;;;1.00;1.00;;;;;;5024278;28;20333;-72
2023/12/07 05:22:34;;;;;;;52.97;24.20;;;1.10;1.00;;;;;;5021056;28;20214;-70
2023/12/07 05:25:02;;;;;;;52.60;23.63;;;1.10;1.00;;;;;;5023227;28;20254;-70
2023/12/07 05:27:31;;;;;;;54.23;23.70;;;1.20;1.00;;;;;;5018511;28;20221;-71
2023/12/07 05:30:00;;;;;;;54.40;22.90;;;1.10;1.00;;;;;;5010684;28;20238;-69
2023/12/07 05:32:30;;;;;;;54.47;24.30;;;1.10;1.00;;;;;;5017230;28;20219;-69
2023/12/07 05:34:59;;;;;;;49.97;23.27;;;1.00;1.00;;;;;;5022738;28;20300;-70
2023/12/07 05:37:27;;;;;;;54.60;23.40;;;0.90;1.00;;;;;;5020929;28;20230;-71
2023/12/07 05:39:56;;;;;;;56.13;23.00;;;1.00;1.00;;;;;;5020028;28;20261;-69
2023/12/07 05:42:25;;;;;;;52.67;23.47;;;0.90;1.00;;;;;;5029678;28;20764;-71
2023/12/07 05:44:54;;;;;;;54.00;23.50;;;1.00;1.00;;;;;;5021606;28;20228;-72
2023/12/07 05:47:23;;;;;;;60.40;24.47;;;1.10;1.00;;;;;;5019815;28;20228;-71
2023/12/07 05:49:57;;;;;;;58.73;24.40;;;1.00;1.00;;;;;;5054796;28;20224;-71
2023/12/07 05:52:26;;;;;;;48.90;22.53;;;1.20;1.00;;;;;;5017046;28;20228;-71
2023/12/07 05:54:55;;;;;;;55.97;24.33;;;1.20;1.00;;;;;;5021463;28;20231;-71
2023/12/07 05:57:23;;;;;;;53.17;23.77;;;1.10;1.00;;;;;;5019217;28;20893;-70
2023/12/07 05:59:51;;;;;;;55.20;23.90;;;1.20;1.00;;;;;;5016961;28;20305;-71
2023/12/07 06:02:20;;;;;;;57.70;23.70;;;1.10;1.00;;;;;;5016188;28;20219;-69
2023/12/07 06:04:49;;;;;;;59.43;24.10;;;1.00;1.00;;;;;;5034868;28;20216;-70
2023/12/07 06:07:19;;;;;;;52.93;23.63;;;1.10;1.00;;;;;;5024870;28;20227;-71
2023/12/07 06:09:48;;;;;;;51.37;24.07;;;1.30;1.00;;;;;;5021664;28;20228;-70
2023/12/07 06:12:16;;;;;;;52.13;24.53;;;1.50;1.00;;;;;;5022726;28;20228;-72
2023/12/07 06:14:45;;;;;;;46.00;23.17;;;1.20;1.00;;;;;;5019173;28;20233;-71
2023/12/07 06:17:13;;;;;;;56.77;24.70;;;1.40;1.00;;;;;;5023705;28;20223;-70
2023/12/07 06:19:42;;;;;;;57.93;23.83;;;1.30;1.00;;;;;;5039438;28;20220;-70
2023/12/07 06:22:12;;;;;;;49.93;23.87;;;1.40;1.00;;;;;;5025766;28;20227;-69
2023/12/07 06:24:44;;;;;;;49.70;23.17;;;1.30;1.00;;;;;;5051817;28;20232;-71
2023/12/07 06:27:13;;;;;;;55.57;23.57;;;1.30;1.00;;;;;;5028089;28;20278;-70
2023/12/07 06:29:41;;;;;;;47.70;23.57;;;1.20;1.00;;;;;;5021265;28;20815;-70
2023/12/07 06:32:09;;;;;;;50.90;23.33;;;1.20;1.00;;;;;;5016234;28;20819;-71
2023/12/07 06:34:41;;;;;;;46.00;23.30;;;1.20;1.00;;;;;;5026830;28;20226;-70
2023/12/07 06:37:10;;;;;;;42.20;22.77;;;1.20;1.00;;;;;;5022722;28;20236;-71
2023/12/07 06:39:39;;;;;;;53.70;23.40;;;1.20;1.00;;;;;;5018391;28;20232;-71
2023/12/07 06:42:09;;;;;;;50.03;23.77;;;1.30;1.00;;;;;;5024534;28;20225;-69
2023/12/07 06:44:38;;;;;;;54.57;24.47;;;1.20;1.00;;;;;;5022892;28;20238;-69
2023/12/07 06:47:06;;;;;;;42.77;22.33;;;1.20;1.00;;;;;;5027298;28;20328;-68
2023/12/07 06:49:35;;;;;;;47.30;23.30;;;1.20;1.00;;;;;;5019714;28;20301;-69
2023/12/07 06:52:17;;;;;;;57.83;24.47;;;1.20;1.00;;;;;;5023600;28;20230;-69
2023/12/07 06:54:45;;;;;;;48.33;23.27;;;1.30;1.00;;;;;;5027698;28;20926;-69
2023/12/07 06:57:16;;;;;;;46.87;23.57;;;1.20;1.00;;;;;;5023773;28;20307;-69
2023/12/07 06:59:44;;;;;;;42.37;22.47;;;1.20;1.00;;;;;;5024020;28;20224;-69
2023/12/07 07:02:13;;;;;;;51.33;23.03;;;1.20;1.00;;;;;;5055719;28;20236;-69
2023/12/07 07:04:41;;;;;;;49.33;23.77;;;1.40;1.00;;;;;;5022022;28;20225;-69
2023/12/07 07:07:10;;;;;;;45.83;23.27;;;1.30;1.00;;;;;;5021409;28;20220;-71
2023/12/07 07:09:38;;;;;;;44.33;23.27;;;1.30;1.00;;;;;;5022222;28;20225;-71
2023/12/07 07:12:08;;;;;;;47.43;23.77;;;1.40;1.00;;;;;;5026399;28;20229;-69
2023/12/07 07:14:38;;;;;;;46.70;23.03;;;1.20;1.00;;;;;;5028217;28;20293;-72
2023/12/07 07:17:07;;;;;;;49.13;23.73;;;1.20;1.00;;;;;;5034022;28;20224;-70
2023/12/07 07:19:35;;;;;;;45.47;23.90;;;1.30;1.00;;;;;;5039766;28;20224;-70
2023/12/07 07:22:04;;;;;;;47.90;22.17;;;1.30;1.00;;;;;;5013889;28;20979;-72
2023/12/07 07:24:33;;;;;;;45.03;23.40;;;1.30;1.00;;;;;;5022116;28;20319;-67
2023/12/07 07:27:02;;;;;;;50.37;24.43;;;1.40;1.00;;;;;;4988622;28;20521;-69
2023/12/07 07:29:32;;;;;;;44.60;23.63;;;1.50;1.00;;;;;;5032663;28;20228;-71
2023/12/07 07:32:02;;;;;;;48.23;24.83;;;1.30;1.00;;;;;;5019963;28;20309;-68
2023/12/07 07:34:31;;;;;;;46.43;23.47;;;1.40;1.00;;;;;;5017326;28;20246;-71
2023/12/07 07:36:59;;;;;;;48.20;23.97;;;1.40;1.00;;;;;;5017894;28;20229;-71
2023/12/07 07:39:28;;;;;;;47.63;24.27;;;1.30;1.00;;;;;;5013967;28;20276;-71
2023/12/07 07:41:57;;;;;;;50.10;25.33;;;1.30;1.00;;;;;;5013929;28;20738;-69
2023/12/07 07:44:26;;;;;;;48.80;25.20;;;1.40;1.00;;;;;;5036883;28;20224;-71
2023/12/07 07:46:54;;;;;;;55.03;26.27;;;1.30;1.00;;;;;;5017201;28;20849;-70
2023/12/07 07:49:24;;;;;;;46.13;25.03;;;1.30;1.00;;;;;;5046968;28;20224;-71
2023/12/07 07:51:53;;;;;;;51.80;25.80;;;1.20;1.00;;;;;;5015740;28;20232;-72
2023/12/07 07:54:21;;;;;;;49.20;24.87;;;1.30;1.00;;;;;;5023384;28;20246;-72
2023/12/07 07:56:50;;;;;;;51.87;25.70;;;1.40;1.00;;;;;;5015195;28;20289;-72
2023/12/07 07:59:18;;;;;;;51.13;26.10;;;1.50;1.00;;;;;;5023416;28;20310;-72
2023/12/07 08:01:48;;;;;;;56.23;26.53;;;1.60;1.00;;;;;;5013662;28;21725;-73
2023/12/07 08:04:17;;;;;;;49.17;26.60;;;1.80;1.00;;;;;;5025275;28;20251;-72
2023/12/07 08:06:47;;;;;;;48.70;26.07;;;1.70;1.00;;;;;;5015647;28;20288;-71
2023/12/07 08:09:16;;;;;;;50.23;26.57;;;1.90;1.00;;;;;;5022482;28;20229;-72
2023/12/07 08:11:45;;;;;;;52.30;25.83;;;1.90;1.00;;;;;;5019786;28;20327;-69
2023/12/07 08:14:14;;;;;;;44.83;25.77;;;1.70;1.00;;;;;;5017862;28;20343;-71
2023/12/07 08:16:46;;;;;;;53.67;27.13;;;1.80;1.00;;;;;;5019952;28;20232;-70
2023/12/07 08:19:15;;;;;;;51.00;26.63;;;1.90;1.00;;;;;;5018419;28;20318;-68
2023/12/07 08:21:43;;;;;;;53.87;27.27;;;1.70;1.00;;;;;;5020148;28;20314;-71
2023/12/07 08:24:13;;;;;;;49.90;26.83;;;1.70;1.00;;;;;;5020789;28;20221;-68
2023/12/07 08:26:42;;;;;;;52.27;27.30;;;1.80;1.00;;;;;;5034072;28;20275;-69
2023/12/07 08:29:11;;;;;;;53.77;27.87;;;1.60;1.00;;;;;;5024902;28;20228;-68
2023/12/07 08:31:40;;;;;;;48.43;26.10;;;1.80;1.00;;;;;;5019607;28;20230;-73
2023/12/07 08:34:09;;;;;;;50.63;27.87;;;1.90;1.00;;;;;;5023301;28;20252;-72
2023/12/07 08:36:38;;;;;;;53.40;27.93;;;1.90;1.00;;;;;;5017400;28;20237;-72
2023/12/07 08:39:09;;;;;;;55.57;28.90;;;1.90;1.00;;;;;;5019195;28;20736;-72
2023/12/07 08:41:39;;;;;;;52.03;27.10;;;1.90;1.00;;;;;;5009459;28;20241;-71
2023/12/07 08:44:08;;;;;;;51.57;27.70;;;2.10;1.00;;;;;;5036714;28;20248;-73
2023/12/07 08:46:37;;;;;;;58.47;28.17;;;2.10;1.00;;;;;;5022473;28;20227;-71
2023/12/07 08:49:06;;;;;;;49.87;27.77;;;2.20;1.00;;;;;;5021689;28;20217;-72
2023/12/07 08:51:35;;;;;;;60.70;29.67;;;2.20;1.00;;;;;;5019388;28;20712;-73
2023/12/07 08:54:05;;;;;;;53.60;27.53;;;2.30;1.00;;;;;;5022212;28;20225;-72
2023/12/07 08:56:34;;;;;;;54.80;27.83;;;2.10;1.00;;;;;;5023027;28;20249;-73
2023/12/07 08:59:04;;;;;;;50.67;29.00;;;2.20;1.00;;;;;;5019594;28;20226;-72
2023/12/07 09:01:34;;;;;;;53.87;29.27;;;2.30;1.00;;;;;;5018123;28;20708;-75
2023/12/07 09:04:03;;;;;;;52.43;29.10;;;2.30;1.00;;;;;;5021755;28;20681;-74
2023/12/07 09:06:31;;;;;;;52.13;27.70;;;2.40;1.00;;;;;;5020112;28;20228;-75
2023/12/07 09:09:00;;;;;;;52.30;28.37;;;2.10;1.00;;;;;;5022149;28;20311;-75
2023/12/07 09:11:29;;;;;;;58.03;29.53;;;1.90;1.00;;;;;;5023457;28;20762;-73
2023/12/07 09:13:58;;;;;;;59.50;30.43;;;1.90;1.00;;;;;;5020822;28;20222;-75
2023/12/07 09:16:28;;;;;;;58.40;29.27;;;1.90;1.00;;;;;;5022568;28;20241;-74
2023/12/07 09:18:57;;;;;;;56.10;28.83;;;1.90;1.00;;;;;;5027702;28;20233;-71
2023/12/07 09:21:25;;;;;;;62.73;30.03;;;1.90;1.00;;;;;;5021310;28;20230;-72
2023/12/07 09:23:54;;;;;;;52.93;30.13;;;2.00;1.00;;;;;;5018776;28;20645;-72
2023/12/07 09:26:22;;;;;;;52.10;29.17;;;1.90;1.00;;;;;;5017476;28;20589;-73
2023/12/07 09:28:50;;;;;;;57.67;30.20;;;1.80;1.00;;;;;;5019434;28;20235;-73
2023/12/07 09:31:18;;;;;;;58.40;30.13;;;1.70;1.00;;;;;;5018643;28;20632;-71
2023/12/07 09:33:48;;;;;;;60.83;31.53;;;1.80;1.00;;;;;;5019744;28;20216;-69
2023/12/07 09:36:18;;;;;;;55.80;29.57;;;2.00;1.00;;;;;;5018431;28;20225;-71
2023/12/07 09:38:46;;;;;;;54.10;30.23;;;2.20;1.00;;;;;;5017488;28;20247;-72
2023/12/07 09:41:15;;;;;;;59.83;30.03;;;2.30;1.00;;;;;;5016866;28;20275;-71
2023/12/07 09:43:43;;;;;;;52.33;29.37;;;2.00;1.00;;;;;;5018998;28;20229;-71
2023/12/07 09:46:13;;;;;;;56.37;30.87;;;2.30;1.00;;;;;;5018184;28;20295;-73
2023/12/07 09:48:44;;;;;;;56.47;30.30;;;2.30;1.00;;;;;;5017100;28;20893;-72
2023/12/07 09:51:16;;;;;;;55.57;29.67;;;2.30;1.00;;;;;;5046175;28;21054;-71
2023/12/07 09:53:49;;;;;;;54.87;29.40;;;2.50;1.00;;;;;;5013172;28;20731;-72
2023/12/07 09:56:18;;;;;;;51.90;28.23;;;2.50;1.00;;;;;;5017325;28;20229;-72
2023/12/07 09:58:46;;;;;;;49.47;29.20;;;2.40;1.00;;;;;;5018187;28;20958;-72
2023/12/07 10:01:15;;;;;;;55.27;30.40;;;2.50;1.00;;;;;;5020092;28;20756;-71
2023/12/07 10:03:46;;;;;;;58.67;31.10;;;2.40;1.00;;;;;;5022306;28;20300;-69
2023/12/07 10:06:17;;;;;;;51.27;29.00;;;2.50;1.00;;;;;;5019594;28;20268;-71
2023/12/07 10:08:46;;;;;;;49.90;28.53;;;2.30;1.00;;;;;;5017830;28;20224;-71
2023/12/07 10:11:16;;;;;;;53.77;30.37;;;2.30;1.00;;;;;;5033184;28;20225;-67
2023/12/07 10:13:44;;;;;;;55.00;29.37;;;2.50;1.00;;;;;;5011934;28;20251;-70
2023/12/07 10:16:15;;;;;;;54.67;30.53;;;2.50;1.00;;;;;;5041186;28;20221;-70
2023/12/07 10:18:44;;;;;;;54.50;29.03;;;2.60;1.00;;;;;;5019609;28;20225;-70
2023/12/07 10:21:13;;;;;;;53.37;29.43;;;2.50;1.00;;;;;;5018075;28;20304;-70
2023/12/07 10:23:46;;;;;;;53.97;28.30;;;2.60;1.00;;;;;;5017129;28;20236;-69
2023/12/07 10:26:19;;;;;;;55.73;29.57;;;2.50;1.00;;;;;;5017736;28;20991;-69
2023/12/07 10:28:53;;;;;;;51.93;28.70;;;2.30;1.00;;;;;;5017235;28;20225;-71
2023/12/07 10:31:24;;;;;;;51.03;28.83;;;2.40;1.00;;;;;;5019005;28;20233;-71
2023/12/07 10:33:53;;;;;;;52.33;28.87;;;2.20;1.00;;;;;;5023749;28;20717;-70
2023/12/07 10:36:23;;;;;;;57.10;29.30;;;2.40;1.00;;;;;;5020740;28;20238;-73
2023/12/07 10:38:53;;;;;;;52.40;29.53;;;2.60;1.00;;;;;;5025814;28;20225;-72
2023/12/07 10:41:23;;;;;;;47.97;29.23;;;2.50;1.00;;;;;;5008381;28;20233;-69
2023/12/07 10:43:54;;;;;;;50.63;29.20;;;2.40;1.00;;;;;;5023106;28;20220;-72
2023/12/07 10:46:23;;;;;;;51.70;29.63;;;2.30;1.00;;;;;;5024391;28;20745;-69
2023/12/07 10:48:58;;;;;;;55.83;29.13;;;2.40;1.00;;;;;;5012173;28;20833;-70
2023/12/07 10:51:34;;;;;;;53.87;29.40;;;2.60;1.00;;;;;;5015484;28;20228;-68
2023/12/07 10:54:08;;;;;;;48.87;28.80;;;2.70;1.00;;;;;;5028816;28;20216;-69
2023/12/07 10:56:43;;;;;;;53.93;31.03;;;2.80;1.00;;;;;;5026577;28;20228;-72
2023/12/07 10:59:13;;;;;;;52.77;29.87;;;2.70;1.00;;;;;;5054114;28;20267;-72
2023/12/07 11:01:58;;;;;;;54.77;29.53;;;2.50;1.00;;;;;;5016374;28;20225;-70
2023/12/07 11:04:29;;;;;;;51.43;30.17;;;2.50;1.00;;;;;;5020762;28;20218;-71
2023/12/07 11:07:04;;;;;;;49.33;30.07;;;2.60;1.00;;;;;;5036994;28;20527;-72
2023/12/07 11:09:40;;;;;;;49.80;27.73;;;2.50;1.00;;;;;;5006911;28;20280;-72
2023/12/07 11:12:15;;;;;;;51.47;28.97;;;2.50;1.00;;;;;;5019428;28;20224;-72
2023/12/07 11:14:44;;;;;;;51.83;31.10;;;2.50;1.00;;;;;;5021110;28;20222;-72
2023/12/07 11:17:16;;;;;;;52.00;30.30;;;2.70;1.00;;;;;;5028279;28;20228;-72
2023/12/07 11:19:45;;;;;;;54.83;29.67;;;2.80;1.00;;;;;;5019806;28;20257;-72
2023/12/07 11:22:14;;;;;;;52.97;30.03;;;2.80;1.00;;;;;;5018388;28;20221;-70
2023/12/07 11:25:00;;;;;;;49.97;29.57;;;2.80;1.00;;;;;;5021225;28;20755;-71
2023/12/07 11:27:33;;;;;;;48.47;28.70;;;2.60;1.00;;;;;;5037678;28;20222;-71
2023/12/07 11:30:03;;;;;;;50.90;28.93;;;2.40;1.00;;;;;;5018835;28;20230;-72
2023/12/07 11:32:31;;;;;;;52.63;29.70;;;2.50;1.00;;;;;;5018575;28;20217;-72
2023/12/07 11:35:04;;;;;;;52.10;29.80;;;2.50;1.00;;;;;;5019209;28;20229;-74
2023/12/07 11:38:02;;;;;;;52.50;30.20;;;2.70;1.00;;;;;;5020517;28;20257;-76
2023/12/07 11:40:32;;;;;;;56.30;30.03;;;2.50;1.00;;;;;;5047146;28;20272;-72
2023/12/07 11:43:05;;;;;;;49.90;29.13;;;2.50;1.00;;;;;;5021952;28;20276;-71
2023/12/07 11:45:48;;;;;;;51.00;30.30;;;2.50;1.00;;;;;;5023382;28;20233;-73
2023/12/07 11:48:20;;;;;;;53.70;30.60;;;2.30;1.00;;;;;;5032438;28;20723;-73
2023/12/07 11:51:02;;;;;;;52.37;31.13;;;2.30;1.00;;;;;;5009974;28;20227;-72
2023/12/07 11:53:32;;;;;;;57.00;31.27;;;2.50;1.00;;;;;;5013529;28;20893;-71
2023/12/07 11:56:03;;;;;;;54.53;31.93;;;2.50;1.00;;;;;;5014270;28;20234;-72
2023/12/07 11:58:33;;;;;;;56.27;31.37;;;2.60;1.00;;;;;;5018776;28;20291;-71
2023/12/07 12:01:07;;;;;;;63.57;31.73;;;2.70;1.00;;;;;;5014884;28;20234;-71
2023/12/07 12:03:37;;;;;;;56.53;30.57;;;2.60;1.00;;;;;;5021770;28;20221;-73
2023/12/07 12:06:10;;;;;;;50.70;31.73;;;2.40;1.00;;;;;;5018556;28;20214;-73
2023/12/07 12:08:41;;;;;;;52.90;31.87;;;2.30;1.00;;;;;;5022281;28;20260;-73
2023/12/07 12:11:11;;;;;;;53.43;32.00;;;2.20;1.00;;;;;;5016946;28;20214;-72
2023/12/07 12:13:39;;;;;;;55.17;31.90;;;2.40;1.00;;;;;;5019641;28;20217;-74
2023/12/07 12:16:09;;;;;;;53.20;31.90;;;2.50;1.00;;;;;;5020489;28;20305;-70
2023/12/07 12:18:38;;;;;;;56.77;31.97;;;2.50;1.00;;;;;;5023503;28;20253;-72
2023/12/07 12:21:09;;;;;;;56.40;31.70;;;2.50;1.00;;;;;;5015192;28;20226;-71
2023/12/07 12:23:39;;;;;;;56.23;32.93;;;2.50;1.00;;;;;;5018683;28;20690;-72
2023/12/07 12:26:11;;;;;;;55.20;32.03;;;2.20;1.00;;;;;;5016932;28;20248;-70
2023/12/07 12:28:42;;;;;;;57.40;32.97;;;2.20;1.00;;;;;;5022929;28;20218;-71
2023/12/07 12:31:12;;;;;;;53.23;30.23;;;2.20;1.00;;;;;;5019347;28;20312;-69
2023/12/07 12:33:41;;;;;;;57.10;32.40;;;2.30;1.00;;;;;;5020217;28;20762;-70
2023/12/07 12:36:11;;;;;;;51.67;31.77;;;2.30;1.00;;;;;;5020910;28;20743;-72
2023/12/07 12:38:40;;;;;;;52.37;31.90;;;2.10;1.00;;;;;;5021603;28;20228;-70
2023/12/07 12:41:13;;;;;;;54.53;32.33;;;2.20;1.00;;;;;;5016012;28;20210;-69
2023/12/07 12:43:44;;;;;;;58.53;32.57;;;2.20;1.00;;;;;;5023775;28;20225;-71
2023/12/07 12:46:14;;;;;;;56.07;31.90;;;2.30;1.00;;;;;;5018261;28;20760;-70
2023/12/07 12:48:57;;;;;;;58.13;32.87;;;2.40;1.00;;;;;;5051644;28;20314;-74
2023/12/07 12:51:27;;;;;;;65.97;33.37;;;2.20;1.00;;;;;;5020334;28;20231;-74
2023/12/07 12:53:58;;;;;;;58.43;31.83;;;2.20;1.00;;;;;;5019706;28;20261;-73
2023/12/07 12:56:28;;;;;;;57.40;33.07;;;2.20;1.00;;;;;;5014077;28;20218;-69
2023/12/07 12:58:57;;;;;;;55.70;32.90;;;2.30;1.00;;;;;;5019018;28;20225;-71
2023/12/07 13:01:33;;;;;;;55.70;31.27;;;2.10;1.00;;;;;;5022101;28;20728;-71